Terminal Aerodrome Forecast
Issued by NWS Twin Cities, MN

Home | Current Version | Previous Version | Text Only | Print | Product List | Glossary Off
Versions: 1 2 3 4 5 6 7 8 9 10 11 12 13 14 15 16 17 18 19 20 21 22 23 24 25 26 27 28 29 30 31

000
FTUS43 KMPX 271912 AAA
TAFMSP
TAF AMD
KMSP 271912Z 2719/2824 VRB04KT P6SM -SHRA SCT015 BKN025
      TEMPO 2719/2721 5SM -SHRA BKN015 OVC025
     FM272300 03005KT P6SM SCT025 BKN035
     FM280800 07003KT 6SM BR SCT015 OVC040
     FM281100 06004KT 5SM -SHRA BR SCT015 OVC025
     FM281600 07006KT P6SM OVC025
     FM281900 24006KT P6SM BKN040=

USA.gov is the U.S. government's official web portal to all federal, state and local government web resources and services.